sensor_id;sensor_type;location;lat;lon;timestamp;pressure;altitude;pressure_sealevel;temperature;humidity
67987;BME280;54767;53.800;15.956;2023-04-01T00:00:55;98405.98;;;7.54;84.87
67987;BME280;54767;53.800;15.956;2023-04-01T00:03:25;98403.89;;;7.43;85.03
67987;BME280;54767;53.800;15.956;2023-04-01T00:05:56;98403.38;;;7.30;85.10
67987;BME280;54767;53.800;15.956;2023-04-01T00:08:26;98401.99;;;7.17;85.18
67987;BME280;54767;53.800;15.956;2023-04-01T00:10:54;98402.48;;;7.06;85.37
67987;BME280;54767;53.800;15.956;2023-04-01T00:13:24;98406.05;;;6.99;85.53
67987;BME280;54767;53.800;15.956;2023-04-01T00:15:55;98410.98;;;6.93;85.57
67987;BME280;54767;53.800;15.956;2023-04-01T00:18:25;98414.73;;;6.88;85.69
67987;BME280;54767;53.800;15.956;2023-04-01T00:20:53;98411.32;;;6.82;85.69
67987;BME280;54767;53.800;15.956;2023-04-01T00:23:21;98412.77;;;6.77;85.80
67987;BME280;54767;53.800;15.956;2023-04-01T00:25:50;98416.14;;;6.71;85.83
67987;BME280;54767;53.800;15.956;2023-04-01T00:28:19;98417.61;;;6.64;86.17
67987;BME280;54767;53.800;15.956;2023-04-01T00:30:48;98416.45;;;6.59;86.14
67987;BME280;54767;53.800;15.956;2023-04-01T00:33:16;98417.73;;;6.54;86.00
67987;BME280;54767;53.800;15.956;2023-04-01T00:35:45;98418.80;;;6.51;86.15
67987;BME280;54767;53.800;15.956;2023-04-01T00:38:14;98419.02;;;6.48;86.27
67987;BME280;54767;53.800;15.956;2023-04-01T00:40:45;98424.61;;;6.45;86.54
67987;BME280;54767;53.800;15.956;2023-04-01T00:43:19;98427.95;;;6.40;86.33
67987;BME280;54767;53.800;15.956;2023-04-01T00:45:49;98432.17;;;6.35;86.28
67987;BME280;54767;53.800;15.956;2023-04-01T00:48:23;98431.70;;;6.30;86.38
67987;BME280;54767;53.800;15.956;2023-04-01T00:51:01;98432.25;;;6.27;86.00
67987;BME280;54767;53.800;15.956;2023-04-01T00:53:31;98430.01;;;6.26;86.20
67987;BME280;54767;53.800;15.956;2023-04-01T00:56:05;98430.20;;;6.23;85.74
67987;BME280;54767;53.800;15.956;2023-04-01T00:58:41;98432.69;;;6.18;85.77
67987;BME280;54767;53.800;15.956;2023-04-01T01:01:11;98433.41;;;6.14;85.97
67987;BME280;54767;53.800;15.956;2023-04-01T01:03:40;98435.18;;;6.11;85.82
67987;BME280;54767;53.800;15.956;2023-04-01T01:06:15;98435.41;;;6.05;85.66
67987;BME280;54767;53.800;15.956;2023-04-01T01:11:44;98434.28;;;5.96;85.76
67987;BME280;54767;53.800;15.956;2023-04-01T01:25:59;98443.26;;;5.76;85.71
67987;BME280;54767;53.800;15.956;2023-04-01T01:35:26;98442.97;;;5.68;86.21
67987;BME280;54767;53.800;15.956;2023-04-01T01:38:09;98446.80;;;5.66;86.17
67987;BME280;54767;53.800;15.956;2023-04-01T01:40:42;98444.20;;;5.65;86.07
67987;BME280;54767;53.800;15.956;2023-04-01T01:43:14;98446.80;;;5.65;86.00
67987;BME280;54767;53.800;15.956;2023-04-01T01:45:49;98447.31;;;5.68;86.16
67987;BME280;54767;53.800;15.956;2023-04-01T01:48:19;98448.36;;;5.66;85.87
67987;BME280;54767;53.800;15.956;2023-04-01T01:50:48;98455.33;;;5.63;86.09
67987;BME280;54767;53.800;15.956;2023-04-01T01:53:17;98453.08;;;5.61;85.93
67987;BME280;54767;53.800;15.956;2023-04-01T01:55:47;98459.02;;;5.58;86.16
67987;BME280;54767;53.800;15.956;2023-04-01T01:58:46;98456.27;;;5.52;86.47
67987;BME280;54767;53.800;15.956;2023-04-01T02:01:26;98457.16;;;5.47;86.30
67987;BME280;54767;53.800;15.956;2023-04-01T02:03:57;98457.16;;;5.47;86.35
67987;BME280;54767;53.800;15.956;2023-04-01T02:06:29;98458.20;;;5.47;86.41
67987;BME280;54767;53.800;15.956;2023-04-01T02:09:07;98456.48;;;5.47;86.20
67987;BME280;54767;53.800;15.956;2023-04-01T02:11:57;98457.17;;;5.44;86.55
67987;BME280;54767;53.800;15.956;2023-04-01T02:14:40;98454.77;;;5.40;86.23
67987;BME280;54767;53.800;15.956;2023-04-01T02:17:17;98458.77;;;5.38;86.44
67987;BME280;54767;53.800;15.956;2023-04-01T02:19:50;98458.09;;;5.37;86.61
67987;BME280;54767;53.800;15.956;2023-04-01T02:22:23;98461.21;;;5.36;86.51
67987;BME280;54767;53.800;15.956;2023-04-01T02:24:57;98461.94;;;5.32;86.67
67987;BME280;54767;53.800;15.956;2023-04-01T02:27:26;98469.91;;;5.32;86.55
67987;BME280;54767;53.800;15.956;2023-04-01T02:29:55;98473.04;;;5.31;86.45
67987;BME280;54767;53.800;15.956;2023-04-01T02:32:23;98472.70;;;5.30;86.75
67987;BME280;54767;53.800;15.956;2023-04-01T02:34:53;98473.74;;;5.28;86.76
67987;BME280;54767;53.800;15.956;2023-04-01T02:37:22;98475.50;;;5.27;86.42
67987;BME280;54767;53.800;15.956;2023-04-01T02:39:51;98475.84;;;5.25;86.54
67987;BME280;54767;53.800;15.956;2023-04-01T02:42:19;98480.72;;;5.21;86.68
67987;BME280;54767;53.800;15.956;2023-04-01T02:44:48;98480.38;;;5.19;86.75
67987;BME280;54767;53.800;15.956;2023-04-01T02:47:16;98482.48;;;5.17;86.53
67987;BME280;54767;53.800;15.956;2023-04-01T02:49:44;98487.15;;;5.17;86.59
67987;BME280;54767;53.800;15.956;2023-04-01T02:52:12;98494.80;;;5.15;86.60
67987;BME280;54767;53.800;15.956;2023-04-01T02:54:41;98495.16;;;5.12;86.97
67987;BME280;54767;53.800;15.956;2023-04-01T02:57:09;98496.20;;;5.09;86.58
67987;BME280;54767;53.800;15.956;2023-04-01T02:59:37;98501.42;;;5.07;86.65
67987;BME280;54767;53.800;15.956;2023-04-01T03:02:05;98504.20;;;5.06;86.59
67987;BME280;54767;53.800;15.956;2023-04-01T03:04:35;98508.55;;;5.01;87.10
67987;BME280;54767;53.800;15.956;2023-04-01T03:07:03;98514.79;;;4.99;86.66
67987;BME280;54767;53.800;15.956;2023-04-01T03:09:32;98513.41;;;4.98;86.77
67987;BME280;54767;53.800;15.956;2023-04-01T03:12:00;98519.48;;;4.98;86.74
67987;BME280;54767;53.800;15.956;2023-04-01T03:14:29;98520.86;;;4.97;86.47
67987;BME280;54767;53.800;15.956;2023-04-01T03:16:57;98525.20;;;4.97;86.80
67987;BME280;54767;53.800;15.956;2023-04-01T03:19:25;98524.34;;;4.96;86.70
67987;BME280;54767;53.800;15.956;2023-04-01T03:21:54;98529.70;;;4.98;86.59
67987;BME280;54767;53.800;15.956;2023-04-01T03:24:22;98533.35;;;4.98;86.30
67987;BME280;54767;53.800;15.956;2023-04-01T03:26:50;98533.70;;;4.97;86.74
67987;BME280;54767;53.800;15.956;2023-04-01T03:29:18;98533.36;;;4.94;86.51
67987;BME280;54767;53.800;15.956;2023-04-01T03:31:47;98535.44;;;4.92;86.56
67987;BME280;54767;53.800;15.956;2023-04-01T03:34:15;98535.10;;;4.89;86.59
67987;BME280;54767;53.800;15.956;2023-04-01T03:36:43;98537.02;;;4.87;86.74
67987;BME280;54767;53.800;15.956;2023-04-01T03:39:12;98539.63;;;4.85;86.83
67987;BME280;54767;53.800;15.956;2023-04-01T03:41:40;98544.65;;;4.82;86.74
67987;BME280;54767;53.800;15.956;2023-04-01T03:44:08;98544.14;;;4.83;86.58
67987;BME280;54767;53.800;15.956;2023-04-01T03:46:36;98545.53;;;4.80;86.63
67987;BME280;54767;53.800;15.956;2023-04-01T03:49:09;98547.27;;;4.78;86.68
67987;BME280;54767;53.800;15.956;2023-04-01T03:51:42;98549.86;;;4.77;86.73
67987;BME280;54767;53.800;15.956;2023-04-01T03:54:10;98552.82;;;4.76;86.76
67987;BME280;54767;53.800;15.956;2023-04-01T03:56:38;98550.91;;;4.71;86.64
67987;BME280;54767;53.800;15.956;2023-04-01T03:59:07;98556.46;;;4.69;86.72
67987;BME280;54767;53.800;15.956;2023-04-01T04:01:36;98560.63;;;4.69;86.75
67987;BME280;54767;53.800;15.956;2023-04-01T04:04:04;98562.52;;;4.68;86.75
67987;BME280;54767;53.800;15.956;2023-04-01T04:06:33;98563.40;;;4.68;86.82
67987;BME280;54767;53.800;15.956;2023-04-01T04:09:02;98569.13;;;4.65;86.75
67987;BME280;54767;53.800;15.956;2023-04-01T04:11:31;98570.67;;;4.67;87.11
67987;BME280;54767;53.800;15.956;2023-04-01T04:14:00;98572.75;;;4.66;86.67
67987;BME280;54767;53.800;15.956;2023-04-01T04:16:30;98579.52;;;4.66;86.88
67987;BME280;54767;53.800;15.956;2023-04-01T04:18:59;98585.23;;;4.64;86.89
67987;BME280;54767;53.800;15.956;2023-04-01T04:21:27;98585.92;;;4.61;87.04
67987;BME280;54767;53.800;15.956;2023-04-01T04:23:56;98591.29;;;4.62;86.85
67987;BME280;54767;53.800;15.956;2023-04-01T04:26:24;98591.46;;;4.62;86.94
67987;BME280;54767;53.800;15.956;2023-04-01T04:28:54;98594.93;;;4.62;87.06
67987;BME280;54767;53.800;15.956;2023-04-01T04:31:24;98594.08;;;4.60;87.12
67987;BME280;54767;53.800;15.956;2023-04-01T04:33:53;98594.59;;;4.59;87.07
67987;BME280;54767;53.800;15.956;2023-04-01T04:36:22;98597.02;;;4.56;86.87
67987;BME280;54767;53.800;15.956;2023-04-01T04:38:51;98596.50;;;4.53;87.13
67987;BME280;54767;53.800;15.956;2023-04-01T04:41:20;98595.46;;;4.52;87.36
67987;BME280;54767;53.800;15.956;2023-04-01T04:43:56;98600.66;;;4.51;87.17
67987;BME280;54767;53.800;15.956;2023-04-01T04:46:26;98596.50;;;4.47;87.43
67987;BME280;54767;53.800;15.956;2023-04-01T04:48:55;98597.36;;;4.47;87.26
67987;BME280;54767;53.800;15.956;2023-04-01T04:51:23;98602.23;;;4.48;87.41
67987;BME280;54767;53.800;15.956;2023-04-01T04:53:51;98607.08;;;4.50;87.44
67987;BME280;54767;53.800;15.956;2023-04-01T04:56:21;98612.10;;;4.49;87.61
67987;BME280;54767;53.800;15.956;2023-04-01T04:58:49;98612.09;;;4.49;87.22
67987;BME280;54767;53.800;15.956;2023-04-01T05:01:18;98611.58;;;4.52;87.40
67987;BME280;54767;53.800;15.956;2023-04-01T05:03:47;98613.98;;;4.53;87.45
67987;BME280;54767;53.800;15.956;2023-04-01T05:06:16;98619.55;;;4.55;87.35
67987;BME280;54767;53.800;15.956;2023-04-01T05:08:44;98617.63;;;4.55;87.43
67987;BME280;54767;53.800;15.956;2023-04-01T05:11:18;98618.14;;;4.54;87.32
67987;BME280;54767;53.800;15.956;2023-04-01T05:13:47;98623.87;;;4.56;87.27
67987;BME280;54767;53.800;15.956;2023-04-01T05:16:18;98624.58;;;4.54;87.23
67987;BME280;54767;53.800;15.956;2023-04-01T05:18:47;98627.15;;;4.54;87.31
67987;BME280;54767;53.800;15.956;2023-04-01T05:21:15;98630.80;;;4.57;87.32
67987;BME280;54767;53.800;15.956;2023-04-01T05:23:44;98632.36;;;4.61;87.34
67987;BME280;54767;53.800;15.956;2023-04-01T05:26:14;98638.08;;;4.64;87.49
67987;BME280;54767;53.800;15.956;2023-04-01T05:28:42;98640.84;;;4.64;87.17
67987;BME280;54767;53.800;15.956;2023-04-01T05:31:10;98644.33;;;4.63;87.56
67987;BME280;54767;53.800;15.956;2023-04-01T05:33:39;98646.73;;;4.65;87.07
67987;BME280;54767;53.800;15.956;2023-04-01T05:36:15;98650.38;;;4.68;87.28
67987;BME280;54767;53.800;15.956;2023-04-01T05:38:44;98649.52;;;4.70;87.28
67987;BME280;54767;53.800;15.956;2023-04-01T05:41:14;98650.04;;;4.70;87.00
67987;BME280;54767;53.800;15.956;2023-04-01T05:43:43;98651.92;;;4.71;87.14
67987;BME280;54767;53.800;15.956;2023-04-01T05:46:12;98652.63;;;4.71;87.11
67987;BME280;54767;53.800;15.956;2023-04-01T05:48:40;98655.73;;;4.71;86.94
67987;BME280;54767;53.800;15.956;2023-04-01T05:51:15;98655.05;;;4.71;86.97
67987;BME280;54767;53.800;15.956;2023-04-01T05:53:44;98659.91;;;4.70;86.77
67987;BME280;54767;53.800;15.956;2023-04-01T05:56:12;98663.91;;;4.72;87.07
67987;BME280;54767;53.800;15.956;2023-04-01T05:58:40;98665.80;;;4.71;87.06
67987;BME280;54767;53.800;15.956;2023-04-01T06:01:10;98668.92;;;4.70;87.08
67987;BME280;54767;53.800;15.956;2023-04-01T06:03:43;98670.65;;;4.71;87.03
67987;BME280;54767;53.800;15.956;2023-04-01T06:06:20;98674.46;;;4.72;86.98
67987;BME280;54767;53.800;15.956;2023-04-01T06:08:52;98675.67;;;4.71;87.12
67987;BME280;54767;53.800;15.956;2023-04-01T06:25:52;98695.77;;;4.68;87.16
67987;BME280;54767;53.800;15.956;2023-04-01T06:28:53;98700.11;;;4.69;87.07
67987;BME280;54767;53.800;15.956;2023-04-01T06:51:13;98722.11;;;4.64;87.27
67987;BME280;54767;53.800;15.956;2023-04-01T06:56:27;98722.45;;;4.62;87.20
67987;BME280;54767;53.800;15.956;2023-04-01T06:59:08;98728.35;;;4.64;87.36
67987;BME280;54767;53.800;15.956;2023-04-01T07:01:41;98729.74;;;4.66;87.31
67987;BME280;54767;53.800;15.956;2023-04-01T10:55:55;98985.02;;;4.72;84.68
67987;BME280;54767;53.800;15.956;2023-04-01T11:26:55;99018.17;;;4.81;84.02
67987;BME280;54767;53.800;15.956;2023-04-01T11:38:09;99035.17;;;4.83;83.79
67987;BME280;54767;53.800;15.956;2023-04-01T11:40:59;99033.58;;;4.78;83.53
67987;BME280;54767;53.800;15.956;2023-04-01T11:43:37;99042.06;;;4.75;83.69
67987;BME280;54767;53.800;15.956;2023-04-01T11:46:23;99046.70;;;4.69;83.40
67987;BME280;54767;53.800;15.956;2023-04-01T12:05:43;99070.66;;;4.51;83.33
67987;BME280;54767;53.800;15.956;2023-04-01T12:08:22;99072.92;;;4.52;83.51
67987;BME280;54767;53.800;15.956;2023-04-01T12:10:57;99074.65;;;4.52;83.52
67987;BME280;54767;53.800;15.956;2023-04-01T12:13:42;99078.46;;;4.52;83.54
67987;BME280;54767;53.800;15.956;2023-04-01T12:22:12;99094.31;;;4.41;83.09
67987;BME280;54767;53.800;15.956;2023-04-01T12:27:42;99098.98;;;4.39;83.34
67987;BME280;54767;53.800;15.956;2023-04-01T12:33:01;99104.48;;;4.36;82.85
67987;BME280;54767;53.800;15.956;2023-04-01T12:36:01;99107.41;;;4.33;83.12
67987;BME280;54767;53.800;15.956;2023-04-01T12:42:04;99113.27;;;4.32;82.94
67987;BME280;54767;53.800;15.956;2023-04-01T13:00:57;99136.38;;;4.20;83.00
67987;BME280;54767;53.800;15.956;2023-04-01T13:12:23;99163.09;;;4.25;82.64
67987;BME280;54767;53.800;15.956;2023-04-01T13:18:31;99174.44;;;4.17;82.47
67987;BME280;54767;53.800;15.956;2023-04-01T13:24:21;99173.66;;;4.08;82.63
67987;BME280;54767;53.800;15.956;2023-04-01T13:35:31;99179.07;;;3.97;82.28
67987;BME280;54767;53.800;15.956;2023-04-01T13:40:57;99188.21;;;3.94;82.50
67987;BME280;54767;53.800;15.956;2023-04-01T13:43:35;99184.73;;;3.92;82.58
67987;BME280;54767;53.800;15.956;2023-04-01T13:46:12;99188.52;;;3.89;82.80
67987;BME280;54767;53.800;15.956;2023-04-01T13:49:02;99195.74;;;3.87;82.90
67987;BME280;54767;53.800;15.956;2023-04-01T13:54:20;99202.25;;;3.81;82.42
67987;BME280;54767;53.800;15.956;2023-04-01T13:57:25;99204.48;;;3.79;82.92
67987;BME280;54767;53.800;15.956;2023-04-01T14:20:41;99237.42;;;3.71;82.68
67987;BME280;54767;53.800;15.956;2023-04-01T14:23:30;99241.85;;;3.66;82.55
67987;BME280;54767;53.800;15.956;2023-04-01T14:32:10;99251.65;;;3.61;82.69
67987;BME280;54767;53.800;15.956;2023-04-01T14:34:59;99246.77;;;3.58;82.67
67987;BME280;54767;53.800;15.956;2023-04-01T14:40:26;99258.19;;;3.59;82.53
67987;BME280;54767;53.800;15.956;2023-04-01T14:48:32;99262.02;;;3.61;82.57
67987;BME280;54767;53.800;15.956;2023-04-01T14:51:13;99264.58;;;3.57;82.86
67987;BME280;54767;53.800;15.956;2023-04-01T14:53:54;99272.11;;;3.53;82.71
67987;BME280;54767;53.800;15.956;2023-04-01T14:59:14;99286.11;;;3.51;82.72
67987;BME280;54767;53.800;15.956;2023-04-01T15:02:01;99287.50;;;3.52;83.00
67987;BME280;54767;53.800;15.956;2023-04-01T15:28:37;99318.26;;;3.39;82.72
67987;BME280;54767;53.800;15.956;2023-04-01T15:31:17;99327.08;;;3.38;82.58
67987;BME280;54767;53.800;15.956;2023-04-01T15:33:49;99330.83;;;3.36;82.42
67987;BME280;54767;53.800;15.956;2023-04-01T15:41:43;99343.48;;;3.26;82.34
67987;BME280;54767;53.800;15.956;2023-04-01T16:01:16;99365.31;;;3.10;82.69
67987;BME280;54767;53.800;15.956;2023-04-01T16:04:07;99370.35;;;3.11;82.75
67987;BME280;54767;53.800;15.956;2023-04-01T16:20:22;99392.67;;;3.03;82.31
67987;BME280;54767;53.800;15.956;2023-04-01T16:23:18;99395.77;;;3.02;82.79
67987;BME280;54767;53.800;15.956;2023-04-01T16:26:06;99407.70;;;3.02;82.62
67987;BME280;54767;53.800;15.956;2023-04-01T16:31:48;99419.95;;;3.01;82.44
67987;BME280;54767;53.800;15.956;2023-04-01T16:35:25;99427.69;;;2.98;82.47
67987;BME280;54767;53.800;15.956;2023-04-01T16:45:42;99443.13;;;2.85;82.16
67987;BME280;54767;53.800;15.956;2023-04-01T16:48:20;99448.98;;;2.84;82.29
67987;BME280;54767;53.800;15.956;2023-04-01T16:51:04;99453.16;;;2.84;82.68
67987;BME280;54767;53.800;15.956;2023-04-01T16:57:03;99463.61;;;2.81;81.93
67987;BME280;54767;53.800;15.956;2023-04-01T17:04:47;99478.99;;;2.72;81.81
67987;BME280;54767;53.800;15.956;2023-04-01T17:07:46;99481.40;;;2.71;81.88
67987;BME280;54767;53.800;15.956;2023-04-01T17:15:43;99498.29;;;2.70;82.04
67987;BME280;54767;53.800;15.956;2023-04-01T17:20:55;99505.77;;;2.65;82.49
67987;BME280;54767;53.800;15.956;2023-04-01T17:23:43;99510.73;;;2.62;81.79
67987;BME280;54767;53.800;15.956;2023-04-01T17:26:40;99518.29;;;2.60;82.21
67987;BME280;54767;53.800;15.956;2023-04-01T17:29:29;99520.30;;;2.57;82.22
67987;BME280;54767;53.800;15.956;2023-04-01T17:40:26;99531.36;;;2.51;82.10
67987;BME280;54767;53.800;15.956;2023-04-01T17:48:18;99540.59;;;2.53;82.11
67987;BME280;54767;53.800;15.956;2023-04-01T17:51:17;99546.45;;;2.53;82.12
67987;BME280;54767;53.800;15.956;2023-04-01T18:00:24;99556.38;;;2.49;81.69
67987;BME280;54767;53.800;15.956;2023-04-01T18:06:09;99567.91;;;2.47;82.17
67987;BME280;54767;53.800;15.956;2023-04-01T18:09:00;99571.54;;;2.47;82.13
67987;BME280;54767;53.800;15.956;2023-04-01T18:22:43;99591.02;;;2.45;81.83
67987;BME280;54767;53.800;15.956;2023-04-01T18:25:29;99598.24;;;2.44;81.87
67987;BME280;54767;53.800;15.956;2023-04-01T18:36:19;99610.75;;;2.40;82.05
67987;BME280;54767;53.800;15.956;2023-04-01T18:39:02;99615.60;;;2.41;81.70
67987;BME280;54767;53.800;15.956;2023-04-01T18:44:45;99625.28;;;2.35;81.10
67987;BME280;54767;53.800;15.956;2023-04-01T18:50:02;99640.26;;;2.33;81.27
67987;BME280;54767;53.800;15.956;2023-04-01T18:52:39;99641.06;;;2.31;80.84
67987;BME280;54767;53.800;15.956;2023-04-01T18:55:33;99648.98;;;2.30;80.98
67987;BME280;54767;53.800;15.956;2023-04-01T18:58:17;99655.02;;;2.29;81.17
67987;BME280;54767;53.800;15.956;2023-04-01T19:01:04;99657.46;;;2.31;81.30
67987;BME280;54767;53.800;15.956;2023-04-01T19:04:00;99661.50;;;2.33;81.10
67987;BME280;54767;53.800;15.956;2023-04-01T19:06:51;99663.80;;;2.29;80.72
67987;BME280;54767;53.800;15.956;2023-04-01T19:09:27;99666.97;;;2.24;80.50
67987;BME280;54767;53.800;15.956;2023-04-01T19:15:02;99672.52;;;2.19;81.00
67987;BME280;54767;53.800;15.956;2023-04-01T19:20:42;99679.45;;;2.19;80.74
67987;BME280;54767;53.800;15.956;2023-04-01T19:26:11;99691.39;;;2.20;80.74
67987;BME280;54767;53.800;15.956;2023-04-01T19:31:44;99696.64;;;2.17;80.11
67987;BME280;54767;53.800;15.956;2023-04-01T19:46:17;99720.94;;;1.96;79.61
67987;BME280;54767;53.800;15.956;2023-04-01T19:57:43;99735.69;;;1.99;79.93
67987;BME280;54767;53.800;15.956;2023-04-01T20:00:34;99737.21;;;1.99;80.00
67987;BME280;54767;53.800;15.956;2023-04-01T20:14:19;99759.38;;;1.95;79.49
67987;BME280;54767;53.800;15.956;2023-04-01T20:16:55;99764.30;;;1.92;78.89
67987;BME280;54767;53.800;15.956;2023-04-01T20:19:48;99766.27;;;1.89;78.82
67987;BME280;54767;53.800;15.956;2023-04-01T20:22:24;99771.45;;;1.83;78.62
67987;BME280;54767;53.800;15.956;2023-04-01T20:25:05;99773.89;;;1.78;78.67
67987;BME280;54767;53.800;15.956;2023-04-01T20:27:47;99774.22;;;1.77;78.91
67987;BME280;54767;53.800;15.956;2023-04-01T20:51:31;99807.88;;;1.78;79.14
67987;BME280;54767;53.800;15.956;2023-04-01T20:54:22;99817.96;;;1.80;79.02
67987;BME280;54767;53.800;15.956;2023-04-01T20:57:04;99821.02;;;1.85;79.01
67987;BME280;54767;53.800;15.956;2023-04-01T21:00:02;99820.63;;;1.89;79.12
67987;BME280;54767;53.800;15.956;2023-04-01T21:03:12;99823.22;;;1.89;78.92
67987;BME280;54767;53.800;15.956;2023-04-01T21:20:40;99834.73;;;1.93;78.60
67987;BME280;54767;53.800;15.956;2023-04-01T21:26:31;99847.70;;;1.94;79.09
67987;BME280;54767;53.800;15.956;2023-04-01T21:29:11;99846.27;;;1.98;78.57
67987;BME280;54767;53.800;15.956;2023-04-01T21:38:04;99848.33;;;1.98;78.33
67987;BME280;54767;53.800;15.956;2023-04-01T21:43:20;99852.55;;;1.94;78.31
67987;BME280;54767;53.800;15.956;2023-04-01T21:51:44;99861.27;;;1.92;77.52
67987;BME280;54767;53.800;15.956;2023-04-01T22:00:17;99874.52;;;1.74;76.55
67987;BME280;54767;53.800;15.956;2023-04-01T22:12:01;99884.25;;;1.76;77.35
67987;BME280;54767;53.800;15.956;2023-04-01T22:15:16;99886.21;;;1.73;77.21
67987;BME280;54767;53.800;15.956;2023-04-01T22:17:52;99889.67;;;1.73;77.81
67987;BME280;54767;53.800;15.956;2023-04-01T22:28:57;99900.92;;;1.80;77.86
67987;BME280;54767;53.800;15.956;2023-04-01T22:43:36;99914.89;;;1.85;77.80
67987;BME280;54767;53.800;15.956;2023-04-01T22:46:44;99919.16;;;1.89;77.42
67987;BME280;54767;53.800;15.956;2023-04-01T22:49:29;99922.65;;;1.90;77.72
67987;BME280;54767;53.800;15.956;2023-04-01T22:52:27;99925.89;;;1.89;77.56
67987;BME280;54767;53.800;15.956;2023-04-01T22:55:03;99926.14;;;1.87;77.50
67987;BME280;54767;53.800;15.956;2023-04-01T22:57:40;99929.77;;;1.86;77.55
67987;BME280;54767;53.800;15.956;2023-04-01T23:05:46;99937.59;;;1.93;77.86
67987;BME280;54767;53.800;15.956;2023-04-01T23:11:22;99944.88;;;1.95;77.57
67987;BME280;54767;53.800;15.956;2023-04-01T23:16:45;99951.42;;;1.89;77.73
67987;BME280;54767;53.800;15.956;2023-04-01T23:19:29;99951.39;;;1.87;77.79
67987;BME280;54767;53.800;15.956;2023-04-01T23:22:33;99954.33;;;1.88;77.59
67987;BME280;54767;53.800;15.956;2023-04-01T23:28:14;99959.94;;;1.96;78.17
67987;BME280;54767;53.800;15.956;2023-04-01T23:36:00;99962.48;;;2.00;78.11
67987;BME280;54767;53.800;15.956;2023-04-01T23:38:38;99962.25;;;2.03;77.80
67987;BME280;54767;53.800;15.956;2023-04-01T23:41:19;99964.72;;;2.05;78.03
67987;BME280;54767;53.800;15.956;2023-04-01T23:44:12;99964.19;;;2.05;77.45
67987;BME280;54767;53.800;15.956;2023-04-01T23:46:44;99967.61;;;2.04;77.73
67987;BME280;54767;53.800;15.956;2023-04-01T23:49:18;99977.41;;;2.03;77.63
67987;BME280;54767;53.800;15.956;2023-04-01T23:51:56;99977.91;;;2.02;78.10
67987;BME280;54767;53.800;15.956;2023-04-01T23:54:40;99981.07;;;2.04;78.09
67987;BME280;54767;53.800;15.956;2023-04-01T23:57:18;99992.30;;;2.04;77.99
